createdAt,value
2018-08-10T00:00:20.228Z,18.50
2018-08-10T00:02:48.696Z,18.50
2018-08-10T00:05:17.061Z,18.50
2018-08-10T00:07:45.427Z,18.40
2018-08-10T00:10:14.495Z,18.40
2018-08-10T00:12:42.992Z,18.30
2018-08-10T00:15:12.475Z,18.20
2018-08-10T00:17:41.312Z,18.10
2018-08-10T00:20:14.359Z,18.10
2018-08-10T00:22:43.251Z,18.10
2018-08-10T00:25:17.122Z,18.00
2018-08-10T00:27:45.499Z,18.00
2018-08-10T00:30:15.405Z,18.00
2018-08-10T00:32:45.768Z,17.90
2018-08-10T00:35:14.176Z,17.90
2018-08-10T00:37:43.124Z,17.80
2018-08-10T00:40:14.643Z,17.80
2018-08-10T00:42:43.179Z,17.80
2018-08-10T00:45:12.941Z,17.80
2018-08-10T00:47:41.604Z,17.80
2018-08-10T00:50:11.360Z,17.70
2018-08-10T00:52:39.737Z,17.70
2018-08-10T00:55:10.073Z,17.60
2018-08-10T00:57:38.449Z,17.60
2018-08-10T01:00:08.755Z,17.50
2018-08-10T01:02:37.463Z,17.50
2018-08-10T01:05:06.764Z,17.50
2018-08-10T01:07:35.395Z,17.50
2018-08-10T01:10:05.231Z,17.40
2018-08-10T01:12:33.584Z,17.40
2018-08-10T01:15:01.978Z,17.30
2018-08-10T01:17:30.337Z,17.30
2018-08-10T01:19:58.708Z,17.20
2018-08-10T01:22:36.481Z,17.10
2018-08-10T01:25:05.322Z,17.00
2018-08-10T01:27:38.885Z,16.90
2018-08-10T01:30:07.245Z,16.90
2018-08-10T01:32:35.597Z,16.80
2018-08-10T01:35:04.128Z,16.80
2018-08-10T01:37:32.477Z,16.70
2018-08-10T01:40:00.852Z,16.70
2018-08-10T01:42:29.180Z,16.60
2018-08-10T01:44:57.531Z,16.60
2018-08-10T01:47:25.863Z,16.50
2018-08-10T01:49:54.337Z,16.40
2018-08-10T01:52:22.683Z,16.40
2018-08-10T01:54:51.063Z,16.30
2018-08-10T01:57:19.411Z,16.20
2018-08-10T01:59:47.845Z,16.20
2018-08-10T02:02:57.795Z,16.10
2018-08-10T02:05:26.187Z,16.10
2018-08-10T02:07:54.581Z,16.00
2018-08-10T02:10:22.983Z,16.00
2018-08-10T02:12:56.451Z,15.90
2018-08-10T02:15:24.887Z,15.90
2018-08-10T02:17:53.236Z,15.80
2018-08-10T02:20:23.036Z,15.80
2018-08-10T02:22:51.464Z,15.80
2018-08-10T02:25:21.204Z,15.70
2018-08-10T02:27:50.240Z,15.70
2018-08-10T02:30:19.871Z,15.60
2018-08-10T02:32:48.966Z,15.60
2018-08-10T02:35:17.400Z,15.60
2018-08-10T02:37:45.792Z,15.60
2018-08-10T02:40:18.968Z,15.50
2018-08-10T02:42:48.335Z,15.50
2018-08-10T02:45:17.133Z,15.50
2018-08-10T02:47:46.064Z,15.40
2018-08-10T02:50:14.576Z,15.40
2018-08-10T02:52:43.055Z,15.40
2018-08-10T02:55:11.797Z,15.30
2018-08-10T02:57:40.323Z,15.30
2018-08-10T03:00:10.216Z,15.30
2018-08-10T03:02:38.598Z,15.30
2018-08-10T03:05:07.770Z,15.20
2018-08-10T03:07:36.280Z,15.20
2018-08-10T03:10:05.940Z,15.10
2018-08-10T03:12:34.292Z,15.10
2018-08-10T03:15:02.709Z,15.10
2018-08-10T03:17:31.094Z,15.00
2018-08-10T03:19:59.479Z,14.90
2018-08-10T03:22:28.193Z,14.90
2018-08-10T03:24:56.969Z,14.80
2018-08-10T03:27:25.340Z,14.80
2018-08-10T03:29:53.721Z,14.70
2018-08-10T03:32:22.096Z,14.70
2018-08-10T03:34:50.466Z,14.70
2018-08-10T03:37:18.921Z,14.70
2018-08-10T03:39:47.296Z,14.70
2018-08-10T03:42:15.729Z,14.70
2018-08-10T03:44:44.127Z,14.70
2018-08-10T03:47:12.524Z,14.70
2018-08-10T03:49:41.001Z,14.70
2018-08-10T03:52:09.488Z,14.70
2018-08-10T03:54:37.870Z,14.70
2018-08-10T03:57:07.184Z,14.70
2018-08-10T03:59:35.583Z,14.70
2018-08-10T04:02:04.020Z,14.70
2018-08-10T04:04:32.378Z,14.60
2018-08-10T04:07:00.792Z,14.60
2018-08-10T04:09:29.193Z,14.60
2018-08-10T04:11:57.627Z,14.60
2018-08-10T04:14:26.003Z,14.60
2018-08-10T04:16:54.367Z,14.60
2018-08-10T04:19:22.756Z,14.50
2018-08-10T04:21:51.127Z,14.50
2018-08-10T04:24:19.495Z,14.50
2018-08-10T04:26:47.881Z,14.40
2018-08-10T04:29:16.264Z,14.40
2018-08-10T04:31:44.671Z,14.40
2018-08-10T04:34:13.056Z,14.40
2018-08-10T04:36:41.424Z,14.40
2018-08-10T04:39:11.687Z,14.40
2018-08-10T04:41:40.156Z,14.30
2018-08-10T04:44:08.647Z,14.30
2018-08-10T04:46:37.131Z,14.30
2018-08-10T04:49:06.128Z,14.30
2018-08-10T04:51:34.548Z,14.40
2018-08-10T04:54:02.939Z,14.40
2018-08-10T04:56:31.347Z,14.40
2018-08-10T04:58:59.745Z,14.40
2018-08-10T05:01:28.162Z,14.30
2018-08-10T05:03:56.557Z,14.30
2018-08-10T05:06:24.985Z,14.30
2018-08-10T05:08:53.367Z,14.30
2018-08-10T05:11:21.845Z,14.30
2018-08-10T05:13:50.213Z,14.40
2018-08-10T05:16:18.589Z,14.40
2018-08-10T05:18:46.964Z,14.50
2018-08-10T05:21:15.343Z,14.50
2018-08-10T05:23:44.147Z,14.60
2018-08-10T05:26:12.523Z,14.60
2018-08-10T05:28:40.935Z,14.60
2018-08-10T05:31:09.336Z,14.70
2018-08-10T05:33:37.745Z,14.70
2018-08-10T05:36:06.143Z,14.70
2018-08-10T05:38:34.576Z,14.70
2018-08-10T05:41:03.004Z,14.70
2018-08-10T05:43:31.381Z,14.70
2018-08-10T05:45:59.789Z,14.70
2018-08-10T05:48:31.700Z,14.80
2018-08-10T05:51:00.096Z,14.80
2018-08-10T05:53:28.443Z,14.80
2018-08-10T05:55:56.788Z,14.70
2018-08-10T05:58:25.170Z,14.70
2018-08-10T06:00:53.521Z,14.80
2018-08-10T06:03:21.983Z,14.80
2018-08-10T06:05:50.338Z,15.00
2018-08-10T06:08:18.712Z,15.30
2018-08-10T06:10:47.075Z,15.50
2018-08-10T06:13:15.455Z,15.80
2018-08-10T06:15:43.912Z,16.10
2018-08-10T06:18:12.288Z,16.30
2018-08-10T06:20:40.677Z,16.30
2018-08-10T06:23:09.050Z,16.30
2018-08-10T06:25:37.500Z,16.40
2018-08-10T06:28:05.953Z,16.40
2018-08-10T06:30:34.311Z,16.40
2018-08-10T06:33:02.690Z,16.50
2018-08-10T06:35:31.064Z,16.70
2018-08-10T06:37:59.453Z,16.80
2018-08-10T06:40:28.150Z,16.80
2018-08-10T06:42:56.497Z,16.80
2018-08-10T06:45:24.888Z,16.80
2018-08-10T06:47:53.437Z,16.80
2018-08-10T06:50:21.976Z,16.90
2018-08-10T06:52:50.288Z,17.00
2018-08-10T06:55:18.664Z,17.00
2018-08-10T06:57:47.047Z,17.00
2018-08-10T07:00:15.434Z,17.10
2018-08-10T07:02:43.811Z,17.10
2018-08-10T07:05:12.188Z,17.10
2018-08-10T07:07:40.753Z,17.20
2018-08-10T07:10:09.365Z,17.10
2018-08-10T07:12:37.753Z,17.20
2018-08-10T07:15:06.283Z,17.20
2018-08-10T07:17:34.660Z,17.30
2018-08-10T07:20:03.115Z,17.40
2018-08-10T07:22:31.603Z,17.60
2018-08-10T07:24:59.991Z,17.80
2018-08-10T07:27:28.350Z,18.00
2018-08-10T07:29:56.736Z,18.40
2018-08-10T07:32:25.131Z,18.50
2018-08-10T07:34:53.543Z,18.60
2018-08-10T07:37:21.890Z,18.50
2018-08-10T07:39:50.294Z,18.40
2018-08-10T07:42:18.805Z,18.20
2018-08-10T07:44:47.163Z,18.10
2018-08-10T07:47:15.524Z,18.00
2018-08-10T07:49:43.929Z,18.10
2018-08-10T07:52:12.317Z,18.30
2018-08-10T07:54:40.684Z,18.70
2018-08-10T07:57:09.067Z,18.90
2018-08-10T07:59:37.466Z,19.00
2018-08-10T08:02:05.863Z,19.00
2018-08-10T08:04:34.351Z,19.00
2018-08-10T08:07:02.736Z,18.90
2018-08-10T08:09:31.150Z,18.80
2018-08-10T08:11:59.523Z,19.00
2018-08-10T08:14:27.918Z,19.20
2018-08-10T08:16:56.264Z,19.50
2018-08-10T08:19:24.683Z,19.70
2018-08-10T08:22:14.095Z,19.90
2018-08-10T08:24:42.907Z,20.00
2018-08-10T08:27:12.404Z,20.20
2018-08-10T08:29:40.842Z,20.40
2018-08-10T08:32:09.533Z,20.60
2018-08-10T08:34:38.346Z,20.80
2018-08-10T08:37:07.095Z,21.00
2018-08-10T08:40:38.875Z,21.10
2018-08-10T08:43:07.288Z,21.30
2018-08-10T08:45:43.437Z,21.40
2018-08-10T08:48:11.761Z,21.50
2018-08-10T08:50:41.567Z,21.50
2018-08-10T08:53:10.003Z,21.50
2018-08-10T08:55:40.683Z,21.50
2018-08-10T08:58:09.493Z,21.50
2018-08-10T09:00:37.926Z,21.50
2018-08-10T09:03:06.376Z,21.60
2018-08-10T09:05:34.807Z,21.60
2018-08-10T09:08:03.208Z,21.40
2018-08-10T09:10:31.644Z,21.40
2018-08-10T09:13:00.057Z,21.50
2018-08-10T09:15:28.487Z,21.60
2018-08-10T09:17:56.915Z,21.60
2018-08-10T09:20:25.277Z,21.60
2018-08-10T09:22:53.678Z,21.70
2018-08-10T09:25:22.049Z,21.70
2018-08-10T09:27:50.432Z,21.90
2018-08-10T09:30:19.124Z,22.00
2018-08-10T09:32:47.536Z,21.90
2018-08-10T09:35:16.096Z,21.80
2018-08-10T09:37:44.515Z,21.60
2018-08-10T09:42:45.264Z,21.70
2018-08-10T09:45:14.335Z,22.00
2018-08-10T09:47:43.548Z,22.20
2018-08-10T09:50:12.868Z,22.30
2018-08-10T09:52:45.739Z,22.40
2018-08-10T09:55:18.847Z,22.50
2018-08-10T09:57:47.604Z,22.50
2018-08-10T10:00:21.337Z,22.30
2018-08-10T10:02:55.084Z,22.10
2018-08-10T10:05:25.295Z,22.00
2018-08-10T10:07:54.028Z,22.00
2018-08-10T10:10:22.871Z,21.90
2018-08-10T10:12:51.312Z,21.70
2018-08-10T10:15:19.836Z,21.60
2018-08-10T10:17:48.308Z,21.50
2018-08-10T10:20:17.107Z,21.40
2018-08-10T10:22:46.011Z,21.30
2018-08-10T10:25:14.373Z,21.30
2018-08-10T10:27:42.739Z,21.30
2018-08-10T10:30:11.101Z,21.20
2018-08-10T10:32:39.563Z,21.00
2018-08-10T10:35:07.931Z,21.00
2018-08-10T10:37:36.380Z,21.00
2018-08-10T10:40:06.105Z,21.10
2018-08-10T10:42:34.562Z,21.30
2018-08-10T10:45:03.016Z,21.50
2018-08-10T10:47:31.408Z,21.60
2018-08-10T10:49:59.790Z,21.60
2018-08-10T10:52:28.145Z,21.70
2018-08-10T10:54:56.508Z,21.80
2018-08-10T10:57:24.869Z,22.00
2018-08-10T10:59:53.272Z,21.90
2018-08-10T11:02:21.687Z,21.80
2018-08-10T11:04:50.072Z,21.70
2018-08-10T11:07:18.431Z,21.50
2018-08-10T11:09:46.853Z,21.20
2018-08-10T11:12:15.220Z,21.00
2018-08-10T11:14:43.648Z,21.00
2018-08-10T11:17:12.039Z,20.90
2018-08-10T11:19:40.447Z,20.80
2018-08-10T11:22:08.822Z,20.90
2018-08-10T11:24:37.199Z,21.00
2018-08-10T11:27:05.610Z,21.10
2018-08-10T11:29:33.990Z,21.10
2018-08-10T11:32:02.423Z,21.00
2018-08-10T11:34:30.812Z,21.10
2018-08-10T11:36:59.243Z,21.20
2018-08-10T11:39:27.669Z,21.20
2018-08-10T11:41:56.061Z,21.30
2018-08-10T11:44:24.476Z,21.50
2018-08-10T11:46:52.904Z,21.60
2018-08-10T11:49:21.312Z,21.50
2018-08-10T11:51:49.673Z,21.30
2018-08-10T11:54:18.056Z,21.40
2018-08-10T11:56:46.451Z,21.50
2018-08-10T11:59:14.842Z,21.50
2018-08-10T12:01:43.215Z,21.50
2018-08-10T12:04:11.588Z,21.50
2018-08-10T12:06:39.944Z,21.40
2018-08-10T12:09:09.823Z,21.30
2018-08-10T12:11:38.915Z,21.30
2018-08-10T12:14:07.355Z,21.10
2018-08-10T12:16:35.743Z,21.00
2018-08-10T12:19:04.215Z,21.00
2018-08-10T12:21:32.905Z,21.00
2018-08-10T12:24:01.375Z,21.10
2018-08-10T12:26:29.774Z,21.10
2018-08-10T12:28:58.234Z,21.20
2018-08-10T12:31:26.626Z,21.40
2018-08-10T12:33:55.339Z,21.50
2018-08-10T12:36:23.824Z,21.60
2018-08-10T12:38:52.235Z,21.70
2018-08-10T12:41:20.908Z,21.70
2018-08-10T12:43:49.307Z,21.70
2018-08-10T12:46:17.712Z,21.60
2018-08-10T12:48:46.395Z,21.60
2018-08-10T12:51:14.887Z,21.60
2018-08-10T12:53:43.310Z,21.70
2018-08-10T12:56:11.727Z,21.70
2018-08-10T12:58:40.160Z,21.70
2018-08-10T13:01:08.544Z,21.80
2018-08-10T13:03:37.349Z,21.80
2018-08-10T13:06:06.128Z,21.80
2018-08-10T13:08:34.549Z,21.70
2018-08-10T13:11:02.936Z,21.70
2018-08-10T13:13:31.348Z,21.70
2018-08-10T13:15:59.807Z,21.90
2018-08-10T13:18:28.218Z,22.10
2018-08-10T13:20:56.679Z,22.30
2018-08-10T13:23:25.187Z,22.40
2018-08-10T13:25:55.048Z,22.40
2018-08-10T13:28:23.424Z,22.40
2018-08-10T13:30:51.860Z,22.30
2018-08-10T13:33:20.219Z,22.40
2018-08-10T13:35:48.704Z,22.40
2018-08-10T13:38:17.187Z,22.30
2018-08-10T13:40:45.687Z,22.20
2018-08-10T13:43:14.041Z,22.20
2018-08-10T13:45:42.521Z,22.20
2018-08-10T13:48:10.923Z,22.20
2018-08-10T13:50:39.316Z,22.20
2018-08-10T13:53:07.938Z,22.30
2018-08-10T13:55:36.437Z,22.30
2018-08-10T13:58:04.877Z,22.30
2018-08-10T14:00:33.286Z,22.40
2018-08-10T14:03:01.692Z,22.40
2018-08-10T14:05:30.136Z,22.40
2018-08-10T14:07:58.544Z,22.40
2018-08-10T14:10:26.944Z,22.50
2018-08-10T14:12:55.311Z,22.50
2018-08-10T14:15:23.760Z,22.50
2018-08-10T14:17:57.536Z,22.40
2018-08-10T14:20:25.971Z,22.20
2018-08-10T14:22:54.396Z,22.20
2018-08-10T14:25:22.763Z,22.10
2018-08-10T14:27:51.179Z,22.10
2018-08-10T14:30:19.584Z,22.10
2018-08-10T14:32:47.978Z,22.00
2018-08-10T14:35:16.792Z,22.00
2018-08-10T14:37:45.215Z,22.00
2018-08-10T14:40:14.252Z,22.10
2018-08-10T14:42:42.681Z,22.10
2018-08-10T14:45:15.739Z,22.10
2018-08-10T14:47:44.195Z,22.00
2018-08-10T14:50:13.879Z,21.90
2018-08-10T14:52:42.280Z,22.00
2018-08-10T14:55:12.636Z,22.00
2018-08-10T14:57:41.071Z,22.00
2018-08-10T15:00:14.516Z,22.00
2018-08-10T15:02:43.124Z,22.00
2018-08-10T15:05:11.520Z,22.00
2018-08-10T15:07:39.916Z,22.00
2018-08-10T15:10:10.356Z,22.00
2018-08-10T15:12:39.200Z,22.00
2018-08-10T15:15:09.365Z,22.00
2018-08-10T15:17:37.747Z,22.00
2018-08-10T15:20:07.062Z,21.90
2018-08-10T15:22:35.472Z,22.00
2018-08-10T15:25:04.659Z,22.00
2018-08-10T15:27:32.912Z,22.10
2018-08-10T15:30:01.312Z,22.20
2018-08-10T15:32:29.703Z,22.20
2018-08-10T15:34:58.112Z,22.30
2018-08-10T15:37:26.800Z,22.30
2018-08-10T15:39:55.193Z,22.30
2018-08-10T15:42:23.565Z,22.30
2018-08-10T15:44:51.944Z,22.30
2018-08-10T15:47:20.336Z,22.40
2018-08-10T15:49:48.748Z,22.50
2018-08-10T15:52:17.171Z,22.50
2018-08-10T15:54:45.565Z,22.50
2018-08-10T15:57:13.963Z,22.50
2018-08-10T15:59:42.332Z,22.50
2018-08-10T16:02:10.818Z,22.40
2018-08-10T16:04:39.324Z,22.30
2018-08-10T16:07:07.808Z,22.30
2018-08-10T16:09:36.184Z,22.30
2018-08-10T16:12:04.590Z,22.20
2018-08-10T16:14:33.015Z,22.30
2018-08-10T16:17:01.435Z,22.30
2018-08-10T16:19:29.805Z,22.30
2018-08-10T16:21:58.242Z,22.30
2018-08-10T16:24:26.603Z,22.40
2018-08-10T16:26:54.984Z,22.40
2018-08-10T16:29:23.355Z,22.30
2018-08-10T16:31:51.737Z,22.30
2018-08-10T16:34:20.092Z,22.20
2018-08-10T16:36:48.511Z,22.20
2018-08-10T16:39:16.946Z,22.20
2018-08-10T16:41:45.389Z,22.20
2018-08-10T16:44:13.846Z,22.20
2018-08-10T16:46:42.193Z,22.30
2018-08-10T16:49:10.579Z,22.30
2018-08-10T16:51:39.068Z,22.30
2018-08-10T16:54:07.639Z,22.20
2018-08-10T16:56:36.068Z,22.20
2018-08-10T16:59:04.489Z,22.20
2018-08-10T17:01:32.860Z,22.20
2018-08-10T17:04:01.314Z,22.30
2018-08-10T17:06:29.679Z,22.30
2018-08-10T17:08:58.122Z,22.40
2018-08-10T17:11:26.472Z,22.40
2018-08-10T17:13:54.888Z,22.40
2018-08-10T17:16:23.603Z,22.30
2018-08-10T17:18:52.012Z,22.30
2018-08-10T17:21:20.380Z,22.20
2018-08-10T17:23:48.771Z,22.20
2018-08-10T17:26:17.206Z,22.20
2018-08-10T17:28:45.564Z,22.10
2018-08-10T17:31:14.003Z,22.00
2018-08-10T17:33:42.441Z,22.00
2018-08-10T17:36:10.832Z,21.90
2018-08-10T17:38:39.231Z,21.80
2018-08-10T17:41:07.583Z,21.80
2018-08-10T17:43:35.993Z,21.70
2018-08-10T17:46:04.418Z,21.80
2018-08-10T17:48:32.800Z,21.80
2018-08-10T17:51:01.208Z,21.90
2018-08-10T17:53:29.608Z,22.10
2018-08-10T17:55:58.020Z,22.30
2018-08-10T17:58:26.415Z,22.70
2018-08-10T18:00:54.789Z,23.10
2018-08-10T18:03:23.326Z,23.20
2018-08-10T18:05:51.737Z,23.00
2018-08-10T18:08:20.142Z,22.80
2018-08-10T18:10:48.519Z,22.70
2018-08-10T18:13:16.906Z,22.60
2018-08-10T18:15:45.290Z,22.40
2018-08-10T18:18:13.730Z,22.20
2018-08-10T18:20:42.525Z,22.10
2018-08-10T18:23:11.021Z,22.00
2018-08-10T18:25:39.375Z,21.90
2018-08-10T18:28:10.610Z,21.70
2018-08-10T18:30:39.249Z,21.60
2018-08-10T18:33:07.836Z,21.50
2018-08-10T18:35:36.206Z,21.40
2018-08-10T18:38:04.655Z,21.30
2018-08-10T18:40:33.067Z,21.20
2018-08-10T18:43:01.491Z,21.10
2018-08-10T18:45:29.924Z,21.00
2018-08-10T18:47:58.331Z,21.00
2018-08-10T18:50:26.791Z,20.90
2018-08-10T18:52:55.196Z,20.80
2018-08-10T18:55:23.972Z,20.80
2018-08-10T18:57:52.712Z,20.70
2018-08-10T19:00:23.080Z,20.70
2018-08-10T19:02:51.464Z,20.60
2018-08-10T19:05:19.908Z,20.50
2018-08-10T19:07:48.689Z,20.40
2018-08-10T19:10:20.280Z,20.30
2018-08-10T19:12:48.745Z,20.30
2018-08-10T19:15:17.164Z,20.20
2018-08-10T19:17:45.644Z,20.10
2018-08-10T19:20:14.562Z,20.00
2018-08-10T19:22:43.048Z,20.00
2018-08-10T19:25:12.558Z,19.90
2018-08-10T19:27:41.210Z,19.90
2018-08-10T19:30:13.751Z,19.80
2018-08-10T19:32:42.674Z,19.70
2018-08-10T19:35:11.073Z,19.60
2018-08-10T19:37:39.833Z,19.50
2018-08-10T19:40:10.495Z,19.50
2018-08-10T19:42:38.925Z,19.40
2018-08-10T19:45:08.352Z,19.30
2018-08-10T19:47:36.943Z,19.30
2018-08-10T19:50:06.081Z,19.20
2018-08-10T19:52:34.499Z,19.10
2018-08-10T19:55:03.028Z,19.10
2018-08-10T19:57:31.458Z,19.00
2018-08-10T19:59:59.857Z,19.00
2018-08-10T20:02:28.232Z,18.90
2018-08-10T20:04:56.634Z,18.80
2018-08-10T20:07:25.009Z,18.80
2018-08-10T20:09:53.422Z,18.70
2018-08-10T20:12:21.819Z,18.70
2018-08-10T20:14:50.216Z,18.60
2018-08-10T20:17:18.630Z,18.60
2018-08-10T20:19:47.052Z,18.50
2018-08-10T20:22:17.678Z,18.40
2018-08-10T20:24:47.323Z,18.40
2018-08-10T20:27:15.763Z,18.30
2018-08-10T20:29:44.227Z,18.30
2018-08-10T20:32:13.660Z,18.20
2018-08-10T20:34:42.085Z,18.20
2018-08-10T20:37:10.599Z,18.10
2018-08-10T20:39:39.024Z,18.10
2018-08-10T20:42:07.903Z,18.10
2018-08-10T20:44:36.363Z,18.00
2018-08-10T20:47:04.804Z,18.00
2018-08-10T20:49:33.398Z,17.90
2018-08-10T20:52:01.889Z,17.80
2018-08-10T20:54:30.351Z,17.70
2018-08-10T20:56:58.805Z,17.60
2018-08-10T20:59:27.198Z,17.60
2018-08-10T21:01:55.696Z,17.50
2018-08-10T21:04:24.301Z,17.40
2018-08-10T21:06:52.856Z,17.30
2018-08-10T21:09:21.207Z,17.30
2018-08-10T21:11:49.612Z,17.30
2018-08-10T21:14:17.987Z,17.20
2018-08-10T21:16:46.384Z,17.20
2018-08-10T21:19:14.799Z,17.20
2018-08-10T21:21:43.140Z,17.20
2018-08-10T21:24:11.496Z,17.10
2018-08-10T21:26:39.908Z,17.00
2018-08-10T21:29:08.275Z,17.00
2018-08-10T21:31:36.656Z,16.90
2018-08-10T21:34:05.035Z,16.80
2018-08-10T21:36:33.443Z,16.70
2018-08-10T21:39:01.907Z,16.70
2018-08-10T21:41:30.316Z,16.60
2018-08-10T21:43:58.669Z,16.50
2018-08-10T21:46:27.089Z,16.40
2018-08-10T21:48:55.495Z,16.30
2018-08-10T21:51:23.899Z,16.20
2018-08-10T21:53:52.290Z,16.10
2018-08-10T21:56:20.712Z,16.00
2018-08-10T21:58:49.080Z,15.90
2018-08-10T22:01:17.553Z,15.90
2018-08-10T22:03:45.957Z,15.80
2018-08-10T22:06:14.332Z,15.80
2018-08-10T22:08:42.712Z,15.80
2018-08-10T22:11:11.091Z,15.70
2018-08-10T22:13:44.865Z,15.70
2018-08-10T22:16:18.591Z,15.70
2018-08-10T22:18:52.117Z,15.60
2018-08-10T22:21:20.503Z,15.60
2018-08-10T22:23:48.856Z,15.60
2018-08-10T22:26:17.288Z,15.50
2018-08-10T22:28:45.619Z,15.50
2018-08-10T22:31:14.040Z,15.50
2018-08-10T22:33:42.395Z,15.40
2018-08-10T22:36:10.836Z,15.40
2018-08-10T22:38:39.249Z,15.40
2018-08-10T22:41:07.791Z,15.50
2018-08-10T22:43:36.159Z,15.50
2018-08-10T22:46:04.559Z,15.50
2018-08-10T22:48:32.911Z,15.50
2018-08-10T22:51:01.291Z,15.40
2018-08-10T22:53:29.643Z,15.40
2018-08-10T22:55:58.059Z,15.30
2018-08-10T22:58:26.440Z,15.20
2018-08-10T23:00:54.830Z,15.10
2018-08-10T23:03:23.163Z,15.00
2018-08-10T23:05:51.583Z,15.10
2018-08-10T23:08:20.015Z,15.10
2018-08-10T23:10:48.401Z,15.10
2018-08-10T23:13:16.808Z,15.10
2018-08-10T23:15:45.241Z,15.10
2018-08-10T23:18:13.707Z,15.10
2018-08-10T23:20:42.107Z,15.10
2018-08-10T23:23:10.467Z,15.10
2018-08-10T23:25:38.840Z,15.10
2018-08-10T23:28:07.239Z,15.10
2018-08-10T23:30:35.669Z,15.10
2018-08-10T23:33:04.047Z,15.10
2018-08-10T23:35:32.424Z,15.10
2018-08-10T23:38:00.836Z,15.10
2018-08-10T23:40:29.274Z,15.10
2018-08-10T23:42:57.666Z,15.10
2018-08-10T23:45:26.052Z,15.10
2018-08-10T23:47:54.429Z,15.10
2018-08-10T23:50:22.843Z,15.10
2018-08-10T23:52:51.240Z,15.10
2018-08-10T23:55:20.179Z,15.10
2018-08-10T23:57:48.666Z,15.10
